Time;durP1;ratioP1;P1;durP2;ratioP2;P2;SDS_P1;SDS_P2;PMS_P1;PMS_P2;Temp;Humidity;BMP_temperature;BMP_pressure;BME280_temperature;BME280_humidity;BME280_pressure;Samples;Min_cycle;Max_cycle;Signal;HPM_P1;HPM_P2
2023/08/09 00:00:03;;;;;;;8.23;1.52;;;;;;;;;;5085455;28;20044;-57
2023/08/09 00:02:30;;;;;;;4.47;1.73;;;;;;;;;;5086332;28;20036;-57
2023/08/09 00:04:56;;;;;;;4.90;1.27;;;;;;;;;;5097283;28;20044;-57
2023/08/09 00:07:22;;;;;;;4.32;1.50;;;;;;;;;;5095063;28;20442;-57
2023/08/09 00:09:48;;;;;;;7.13;1.58;;;;;;;;;;5096161;28;20086;-58
2023/08/09 00:12:14;;;;;;;4.47;1.45;;;;;;;;;;5091389;28;20104;-58
2023/08/09 00:14:40;;;;;;;2.85;1.05;;;;;;;;;;5091746;28;20108;-57
2023/08/09 00:17:07;;;;;;;7.15;1.50;;;;;;;;;;5095255;28;20047;-57
2023/08/09 00:19:33;;;;;;;5.65;1.42;;;;;;;;;;5094732;28;20076;-57
2023/08/09 00:21:59;;;;;;;6.30;1.58;;;;;;;;;;5091269;28;20029;-57
2023/08/09 00:24:25;;;;;;;5.03;1.48;;;;;;;;;;5096116;28;20521;-57
2023/08/09 00:26:51;;;;;;;4.45;1.35;;;;;;;;;;5086563;28;20459;-58
2023/08/09 00:29:18;;;;;;;3.22;1.50;;;;;;;;;;5089679;28;20511;-58
2023/08/09 00:31:44;;;;;;;5.18;1.60;;;;;;;;;;5093376;28;20052;-57
2023/08/09 00:34:10;;;;;;;6.07;1.40;;;;;;;;;;5096877;28;20400;-57
2023/08/09 00:36:37;;;;;;;3.85;1.35;;;;;;;;;;5097990;28;20388;-57
2023/08/09 00:39:05;;;;;;;2.53;1.08;;;;;;;;;;5090012;28;20039;-58
2023/08/09 00:41:32;;;;;;;3.50;1.40;;;;;;;;;;5090835;28;20084;-58
2023/08/09 00:43:58;;;;;;;7.65;1.45;;;;;;;;;;5091347;28;20056;-57
2023/08/09 00:46:24;;;;;;;4.47;1.42;;;;;;;;;;5080398;28;20111;-57
2023/08/09 00:48:51;;;;;;;3.97;1.67;;;;;;;;;;5084575;28;20452;-57
2023/08/09 00:51:19;;;;;;;5.78;1.40;;;;;;;;;;5083633;28;20086;-57
2023/08/09 00:53:46;;;;;;;3.35;1.58;;;;;;;;;;5085302;28;20058;-57
2023/08/09 00:56:12;;;;;;;5.47;1.63;;;;;;;;;;5090027;28;20440;-58
2023/08/09 00:58:38;;;;;;;5.75;1.30;;;;;;;;;;5093628;28;20055;-58
2023/08/09 01:01:05;;;;;;;5.82;1.45;;;;;;;;;;5091243;28;20048;-57
2023/08/09 01:03:31;;;;;;;6.68;1.92;;;;;;;;;;5093663;28;20126;-58
2023/08/09 01:06:23;;;;;;;4.38;1.65;;;;;;;;;;5090505;28;20574;-57
2023/08/09 01:08:53;;;;;;;3.95;1.48;;;;;;;;;;5077575;28;20051;-57
2023/08/09 01:11:27;;;;;;;6.00;1.80;;;;;;;;;;5088458;28;20040;-57
2023/08/09 01:13:54;;;;;;;5.05;1.77;;;;;;;;;;5091326;28;20048;-58
2023/08/09 01:16:25;;;;;;;5.38;1.73;;;;;;;;;;5089712;28;20040;-58
2023/08/09 01:18:52;;;;;;;6.65;1.58;;;;;;;;;;5099399;28;20028;-57
2023/08/09 01:21:20;;;;;;;2.88;1.35;;;;;;;;;;5097448;28;20044;-58
2023/08/09 01:23:46;;;;;;;4.38;1.50;;;;;;;;;;5073150;28;20068;-57
2023/08/09 01:26:13;;;;;;;4.55;1.33;;;;;;;;;;5074003;28;20260;-57
2023/08/09 01:28:40;;;;;;;5.40;1.73;;;;;;;;;;5082198;28;20100;-57
2023/08/09 01:31:06;;;;;;;6.70;1.67;;;;;;;;;;5090397;28;20079;-57
2023/08/09 01:33:32;;;;;;;3.63;1.48;;;;;;;;;;5091772;28;20438;-57
2023/08/09 01:36:12;;;;;;;2.88;1.48;;;;;;;;;;5087109;28;20138;-57
2023/08/09 01:38:45;;;;;;;7.13;1.45;;;;;;;;;;5098505;28;20035;-58
2023/08/09 01:41:11;;;;;;;4.53;1.23;;;;;;;;;;5092092;28;20100;-57
2023/08/09 01:43:39;;;;;;;4.70;1.38;;;;;;;;;;5084074;28;20040;-58
2023/08/09 01:46:05;;;;;;;5.35;1.30;;;;;;;;;;5089374;28;20063;-57
2023/08/09 01:48:31;;;;;;;4.97;1.50;;;;;;;;;;5093447;28;20512;-58
2023/08/09 01:50:59;;;;;;;4.35;1.85;;;;;;;;;;5095470;28;20052;-57
2023/08/09 01:53:25;;;;;;;5.65;1.45;;;;;;;;;;5087460;28;20032;-57
2023/08/09 01:55:52;;;;;;;4.38;1.70;;;;;;;;;;5086374;28;20055;-57
2023/08/09 01:58:19;;;;;;;3.30;1.73;;;;;;;;;;5088370;28;20155;-57
2023/08/09 02:00:45;;;;;;;5.60;1.65;;;;;;;;;;5088426;28;20141;-57
2023/08/09 02:03:12;;;;;;;5.60;1.60;;;;;;;;;;5095962;28;20051;-57
2023/08/09 02:05:38;;;;;;;5.30;1.25;;;;;;;;;;5083295;28;20044;-58
2023/08/09 02:08:05;;;;;;;6.30;1.35;;;;;;;;;;5088141;28;20163;-57
2023/08/09 02:10:32;;;;;;;5.75;1.83;;;;;;;;;;5090463;28;20044;-57
2023/08/09 02:12:58;;;;;;;2.95;1.38;;;;;;;;;;5092579;28;20040;-57
2023/08/09 02:15:24;;;;;;;5.10;1.63;;;;;;;;;;5090457;28;20069;-57
2023/08/09 02:17:51;;;;;;;3.22;1.55;;;;;;;;;;5087593;28;20074;-57
2023/08/09 02:20:21;;;;;;;3.67;1.55;;;;;;;;;;5087526;28;20051;-58
2023/08/09 02:22:48;;;;;;;5.82;1.70;;;;;;;;;;5091678;28;20124;-57
2023/08/09 02:25:14;;;;;;;4.65;1.30;;;;;;;;;;5086349;28;20048;-57
2023/08/09 02:27:41;;;;;;;6.55;1.58;;;;;;;;;;5100777;28;20108;-57
2023/08/09 02:30:08;;;;;;;5.57;1.60;;;;;;;;;;5107692;28;20136;-58
2023/08/09 02:32:36;;;;;;;3.85;1.48;;;;;;;;;;5089848;28;20071;-57
2023/08/09 02:35:02;;;;;;;19.02;2.78;;;;;;;;;;5095866;28;20063;-57
2023/08/09 02:37:28;;;;;;;3.70;1.33;;;;;;;;;;5099845;28;20040;-57
2023/08/09 02:39:54;;;;;;;6.88;1.92;;;;;;;;;;5094620;28;20055;-57
2023/08/09 02:42:21;;;;;;;4.10;1.77;;;;;;;;;;5085694;28;20086;-57
2023/08/09 02:44:47;;;;;;;5.57;2.20;;;;;;;;;;5082824;28;20078;-57
2023/08/09 02:47:13;;;;;;;2.78;1.20;;;;;;;;;;5083921;28;20084;-57
2023/08/09 02:49:40;;;;;;;4.25;1.40;;;;;;;;;;5083232;28;20048;-57
2023/08/09 02:52:06;;;;;;;8.52;1.48;;;;;;;;;;5082116;28;20368;-57
2023/08/09 02:54:32;;;;;;;4.88;1.38;;;;;;;;;;5082845;28;20109;-57
2023/08/09 02:56:58;;;;;;;5.53;1.70;;;;;;;;;;5083074;28;20526;-57
2023/08/09 02:59:24;;;;;;;7.28;1.67;;;;;;;;;;5084496;28;20067;-57
2023/08/09 03:01:51;;;;;;;7.40;1.42;;;;;;;;;;5089615;28;20533;-57
2023/08/09 03:04:18;;;;;;;4.03;1.45;;;;;;;;;;5085392;28;20052;-57
2023/08/09 03:06:44;;;;;;;3.47;1.33;;;;;;;;;;5081656;28;20601;-57
2023/08/09 03:09:10;;;;;;;7.55;1.75;;;;;;;;;;5082137;28;20040;-57
2023/08/09 03:11:37;;;;;;;5.70;1.58;;;;;;;;;;5087857;28;20037;-57
2023/08/09 03:14:03;;;;;;;7.10;1.85;;;;;;;;;;5093797;28;20051;-57
2023/08/09 03:16:29;;;;;;;4.10;1.30;;;;;;;;;;5103919;28;20130;-57
2023/08/09 03:18:55;;;;;;;4.75;1.70;;;;;;;;;;5094023;28;20123;-57
2023/08/09 03:21:22;;;;;;;7.10;1.58;;;;;;;;;;5094224;28;20039;-58
2023/08/09 03:23:48;;;;;;;3.88;1.70;;;;;;;;;;5089934;28;20122;-57
2023/08/09 03:26:15;;;;;;;4.07;1.30;;;;;;;;;;5088906;28;20152;-57
2023/08/09 03:28:42;;;;;;;4.30;1.80;;;;;;;;;;5095125;28;20055;-57
2023/08/09 03:31:09;;;;;;;8.13;2.67;;;;;;;;;;5086666;28;20067;-57
2023/08/09 03:33:36;;;;;;;6.30;1.40;;;;;;;;;;5094797;28;20039;-57
2023/08/09 03:36:02;;;;;;;4.85;1.60;;;;;;;;;;5090798;28;20127;-57
2023/08/09 03:38:28;;;;;;;5.03;1.70;;;;;;;;;;5089971;28;20064;-57
2023/08/09 03:40:55;;;;;;;6.82;1.50;;;;;;;;;;5093468;28;20085;-57
2023/08/09 03:43:21;;;;;;;4.22;1.50;;;;;;;;;;5084847;28;20407;-57
2023/08/09 03:45:47;;;;;;;8.10;1.60;;;;;;;;;;5086762;28;20071;-57
2023/08/09 03:48:13;;;;;;;4.70;1.40;;;;;;;;;;5085232;28;20056;-58
2023/08/09 03:50:40;;;;;;;6.85;1.63;;;;;;;;;;5083620;28;20427;-57
2023/08/09 03:53:06;;;;;;;4.00;1.55;;;;;;;;;;5091125;28;20051;-57
2023/08/09 03:55:32;;;;;;;6.05;1.40;;;;;;;;;;5100332;28;20058;-57
2023/08/09 03:57:58;;;;;;;3.22;1.20;;;;;;;;;;5094063;28;20080;-58
2023/08/09 04:00:26;;;;;;;3.47;1.30;;;;;;;;;;5103161;28;20040;-58
2023/08/09 04:02:52;;;;;;;5.30;1.42;;;;;;;;;;5086586;28;20036;-57
2023/08/09 04:05:19;;;;;;;3.75;1.48;;;;;;;;;;5090155;28;20131;-57
2023/08/09 04:07:46;;;;;;;3.60;1.42;;;;;;;;;;5090158;28;20047;-57
2023/08/09 04:10:12;;;;;;;3.05;1.48;;;;;;;;;;5089744;28;20040;-57
2023/08/09 04:12:39;;;;;;;2.97;1.60;;;;;;;;;;5085561;28;20384;-57
2023/08/09 04:15:06;;;;;;;5.53;1.90;;;;;;;;;;5085999;28;20115;-57
2023/08/09 04:17:32;;;;;;;4.55;1.60;;;;;;;;;;5107841;28;20040;-58
2023/08/09 04:19:59;;;;;;;3.58;1.80;;;;;;;;;;5109946;28;20694;-57
2023/08/09 04:22:25;;;;;;;4.63;1.75;;;;;;;;;;5097433;28;20495;-57
2023/08/09 04:24:51;;;;;;;4.55;2.05;;;;;;;;;;5104376;28;20363;-57
2023/08/09 04:27:18;;;;;;;4.32;1.80;;;;;;;;;;5102766;28;20122;-57
2023/08/09 04:29:45;;;;;;;4.65;1.75;;;;;;;;;;5089004;28;20064;-57
2023/08/09 04:32:12;;;;;;;4.97;2.05;;;;;;;;;;5090889;28;20040;-57
2023/08/09 04:34:39;;;;;;;5.28;2.17;;;;;;;;;;5093762;28;20163;-57
2023/08/09 04:37:05;;;;;;;4.25;1.90;;;;;;;;;;5111173;28;20035;-57
2023/08/09 04:39:32;;;;;;;5.78;2.00;;;;;;;;;;5099536;28;20043;-57
2023/08/09 04:41:58;;;;;;;7.07;1.73;;;;;;;;;;5096614;28;20488;-57
2023/08/09 04:44:25;;;;;;;4.60;2.03;;;;;;;;;;5091155;28;20044;-57
2023/08/09 04:46:51;;;;;;;6.10;2.22;;;;;;;;;;5110998;28;20418;-57
2023/08/09 04:49:17;;;;;;;8.25;3.25;;;;;;;;;;5103475;28;20068;-57
2023/08/09 04:51:44;;;;;;;4.90;2.00;;;;;;;;;;5095799;28;20288;-57
2023/08/09 04:54:11;;;;;;;5.38;2.20;;;;;;;;;;5115287;28;20074;-57
2023/08/09 04:56:37;;;;;;;6.10;2.30;;;;;;;;;;5114106;28;20127;-57
2023/08/09 04:59:03;;;;;;;4.95;2.05;;;;;;;;;;5115034;28;20121;-57
2023/08/09 05:01:29;;;;;;;6.72;2.30;;;;;;;;;;5100488;28;20047;-57
2023/08/09 05:03:56;;;;;;;5.25;2.25;;;;;;;;;;5113871;28;20771;-57
2023/08/09 05:06:22;;;;;;;5.32;2.13;;;;;;;;;;5102056;28;20036;-57
2023/08/09 05:08:48;;;;;;;6.05;2.10;;;;;;;;;;5114020;28;20459;-57
2023/08/09 05:11:14;;;;;;;4.80;1.50;;;;;;;;;;5106771;28;20040;-57
2023/08/09 05:13:40;;;;;;;6.47;2.17;;;;;;;;;;5096554;28;20118;-58
2023/08/09 05:16:07;;;;;;;6.57;2.28;;;;;;;;;;5093790;28;20043;-57
2023/08/09 05:18:33;;;;;;;6.78;2.38;;;;;;;;;;5101174;28;20321;-57
2023/08/09 05:20:59;;;;;;;6.03;2.40;;;;;;;;;;5097443;28;20117;-57
2023/08/09 05:23:25;;;;;;;5.25;2.17;;;;;;;;;;5102608;28;20481;-57
2023/08/09 05:25:51;;;;;;;5.82;2.38;;;;;;;;;;5111315;28;20050;-57
2023/08/09 05:28:18;;;;;;;8.57;2.42;;;;;;;;;;5112169;28;20039;-57
2023/08/09 05:30:44;;;;;;;6.93;2.70;;;;;;;;;;5113440;28;20116;-57
2023/08/09 05:33:10;;;;;;;7.70;2.55;;;;;;;;;;5096135;28;20119;-57
2023/08/09 05:35:36;;;;;;;4.63;2.40;;;;;;;;;;5095606;28;20051;-57
2023/08/09 05:38:03;;;;;;;4.18;2.28;;;;;;;;;;5096151;28;20499;-58
2023/08/09 05:40:29;;;;;;;6.68;2.20;;;;;;;;;;5110464;27;20054;-57
2023/08/09 05:42:55;;;;;;;7.88;2.60;;;;;;;;;;5092290;28;20131;-57
2023/08/09 05:45:22;;;;;;;6.70;2.72;;;;;;;;;;5108971;28;20082;-58
2023/08/09 05:47:48;;;;;;;4.47;2.67;;;;;;;;;;5106893;28;20067;-58
2023/08/09 05:50:15;;;;;;;4.80;2.67;;;;;;;;;;5113729;28;20558;-58
2023/08/09 05:52:41;;;;;;;5.35;2.80;;;;;;;;;;5106811;28;20058;-58
2023/08/09 05:55:08;;;;;;;7.32;2.47;;;;;;;;;;5090149;28;20040;-58
2023/08/09 05:57:36;;;;;;;4.75;2.30;;;;;;;;;;5096342;28;20116;-57
2023/08/09 06:00:02;;;;;;;8.20;2.50;;;;;;;;;;5094927;28;20097;-58
2023/08/09 06:02:33;;;;;;;6.80;2.70;;;;;;;;;;5097258;28;20032;-58
2023/08/09 06:05:00;;;;;;;7.57;2.80;;;;;;;;;;5104572;28;20043;-57
2023/08/09 06:07:27;;;;;;;9.55;2.42;;;;;;;;;;5110268;28;20372;-58
2023/08/09 06:09:54;;;;;;;7.05;2.60;;;;;;;;;;5110827;28;20072;-59
2023/08/09 06:12:20;;;;;;;7.53;2.70;;;;;;;;;;5091261;28;20084;-57
2023/08/09 06:14:46;;;;;;;7.40;2.60;;;;;;;;;;5090207;28;20028;-57
2023/08/09 06:17:12;;;;;;;8.27;2.70;;;;;;;;;;5089277;28;20048;-57
2023/08/09 06:19:38;;;;;;;5.95;2.42;;;;;;;;;;5100117;28;20160;-57
2023/08/09 06:22:04;;;;;;;6.95;2.10;;;;;;;;;;5096307;28;20070;-58
2023/08/09 06:24:31;;;;;;;5.50;2.70;;;;;;;;;;5110943;28;20047;-58
2023/08/09 06:26:57;;;;;;;7.55;2.80;;;;;;;;;;5094777;28;20502;-58
2023/08/09 06:29:23;;;;;;;8.73;2.70;;;;;;;;;;5102847;28;20415;-58
2023/08/09 06:31:50;;;;;;;5.65;2.47;;;;;;;;;;5103574;27;20087;-58
2023/08/09 06:34:16;;;;;;;6.65;2.55;;;;;;;;;;5112124;28;20142;-57
2023/08/09 06:36:42;;;;;;;5.88;2.60;;;;;;;;;;5089341;28;20096;-58
2023/08/09 06:39:09;;;;;;;5.85;2.05;;;;;;;;;;5105521;28;20445;-58
2023/08/09 06:41:35;;;;;;;4.45;1.55;;;;;;;;;;5105913;28;20040;-58
2023/08/09 06:44:01;;;;;;;6.45;1.83;;;;;;;;;;5093008;28;20057;-58
2023/08/09 06:46:27;;;;;;;7.97;2.60;;;;;;;;;;5102597;28;20047;-58
2023/08/09 06:48:54;;;;;;;8.18;1.98;;;;;;;;;;5111883;27;20051;-57
2023/08/09 06:51:20;;;;;;;7.00;2.00;;;;;;;;;;5092230;28;20044;-58
2023/08/09 06:53:48;;;;;;;9.35;2.33;;;;;;;;;;5092735;28;20036;-58
2023/08/09 06:56:14;;;;;;;9.45;1.70;;;;;;;;;;5089159;28;20433;-58
2023/08/09 06:58:40;;;;;;;6.43;1.70;;;;;;;;;;5104917;28;20118;-58
2023/08/09 07:01:09;;;;;;;9.38;1.67;;;;;;;;;;5112570;28;20094;-59
2023/08/09 07:03:35;;;;;;;7.25;1.60;;;;;;;;;;5111430;28;20035;-60
2023/08/09 07:06:02;;;;;;;10.25;1.83;;;;;;;;;;5107736;28;20423;-59
2023/08/09 07:08:28;;;;;;;5.47;1.45;;;;;;;;;;5091377;28;20397;-59
2023/08/09 07:10:55;;;;;;;13.93;1.70;;;;;;;;;;5104291;28;20040;-59
2023/08/09 07:13:22;;;;;;;7.13;1.50;;;;;;;;;;5098295;28;20143;-59
2023/08/09 07:15:48;;;;;;;6.50;1.40;;;;;;;;;;5110415;28;20096;-59
2023/08/09 07:18:14;;;;;;;9.32;1.40;;;;;;;;;;5094534;28;20104;-59
2023/08/09 07:20:40;;;;;;;7.88;1.40;;;;;;;;;;5105860;28;20510;-59
2023/08/09 07:23:07;;;;;;;5.57;1.20;;;;;;;;;;5105876;28;20051;-59
2023/08/09 07:25:33;;;;;;;4.70;1.27;;;;;;;;;;5104891;28;20628;-59
2023/08/09 07:27:59;;;;;;;7.10;1.58;;;;;;;;;;5098904;28;20199;-59
2023/08/09 07:30:25;;;;;;;6.55;1.55;;;;;;;;;;5095970;28;20147;-59
2023/08/09 07:32:51;;;;;;;2.33;0.90;;;;;;;;;;5108617;28;20043;-59
2023/08/09 07:35:18;;;;;;;4.78;1.40;;;;;;;;;;5111787;28;20126;-59
2023/08/09 07:37:46;;;;;;;6.05;1.42;;;;;;;;;;5094003;28;20048;-59
2023/08/09 07:40:13;;;;;;;4.10;1.20;;;;;;;;;;5111729;28;20043;-58
2023/08/09 07:42:39;;;;;;;4.90;1.23;;;;;;;;;;5106279;28;20047;-59
2023/08/09 07:45:06;;;;;;;6.60;2.08;;;;;;;;;;5110672;28;20471;-59
2023/08/09 07:47:33;;;;;;;4.05;1.05;;;;;;;;;;5099612;28;20149;-59
2023/08/09 07:50:00;;;;;;;4.43;0.93;;;;;;;;;;5098539;28;20101;-59
2023/08/09 07:52:27;;;;;;;6.88;1.65;;;;;;;;;;5101954;28;20044;-59
2023/08/09 07:54:55;;;;;;;4.25;1.30;;;;;;;;;;5107454;28;20245;-59
2023/08/09 07:57:21;;;;;;;4.25;1.05;;;;;;;;;;5090507;28;20063;-59
2023/08/09 07:59:47;;;;;;;4.80;0.88;;;;;;;;;;5105059;28;20091;-59
2023/08/09 08:02:13;;;;;;;7.13;1.73;;;;;;;;;;5107444;28;20440;-59
2023/08/09 08:04:40;;;;;;;4.22;1.08;;;;;;;;;;5102640;28;20046;-59
2023/08/09 08:07:06;;;;;;;4.55;1.10;;;;;;;;;;5099352;28;20040;-59
2023/08/09 08:09:32;;;;;;;7.68;1.30;;;;;;;;;;5111073;28;20131;-59
2023/08/09 08:11:59;;;;;;;2.35;1.35;;;;;;;;;;5110360;28;20055;-59
2023/08/09 08:14:25;;;;;;;4.03;1.20;;;;;;;;;;5111221;28;20046;-59
2023/08/09 08:16:51;;;;;;;5.53;1.42;;;;;;;;;;5098161;28;20441;-59
2023/08/09 08:19:17;;;;;;;4.55;1.35;;;;;;;;;;5103594;28;20044;-59
2023/08/09 08:21:44;;;;;;;5.47;1.00;;;;;;;;;;5105650;28;20086;-59
2023/08/09 08:24:11;;;;;;;5.10;1.10;;;;;;;;;;5096284;28;20043;-59
2023/08/09 08:26:38;;;;;;;3.72;1.10;;;;;;;;;;5106948;28;20050;-59
2023/08/09 08:29:04;;;;;;;2.70;0.85;;;;;;;;;;5106350;28;20052;-59
2023/08/09 08:31:32;;;;;;;5.45;0.95;;;;;;;;;;5104505;28;20410;-59
2023/08/09 08:33:59;;;;;;;5.32;1.05;;;;;;;;;;5106934;28;20044;-59
2023/08/09 08:36:25;;;;;;;4.80;1.20;;;;;;;;;;5082868;28;20409;-59
2023/08/09 08:38:51;;;;;;;2.72;0.90;;;;;;;;;;5091199;28;20083;-59
2023/08/09 08:41:17;;;;;;;2.38;0.88;;;;;;;;;;5106915;28;20616;-59
2023/08/09 08:43:45;;;;;;;3.70;0.98;;;;;;;;;;5106692;28;20168;-59
2023/08/09 08:46:14;;;;;;;3.05;0.93;;;;;;;;;;5098925;28;20051;-58
2023/08/09 08:48:42;;;;;;;3.95;1.10;;;;;;;;;;5109906;28;20048;-58
2023/08/09 08:51:09;;;;;;;2.78;1.00;;;;;;;;;;5110808;28;20102;-58
2023/08/09 08:53:35;;;;;;;3.92;1.08;;;;;;;;;;5111077;28;20405;-58
2023/08/09 08:56:02;;;;;;;3.33;0.80;;;;;;;;;;5103740;28;20062;-59
2023/08/09 08:58:28;;;;;;;7.57;1.02;;;;;;;;;;5077901;28;20436;-59
2023/08/09 09:00:55;;;;;;;3.45;0.80;;;;;;;;;;5101618;28;20045;-59
2023/08/09 09:03:21;;;;;;;5.80;0.80;;;;;;;;;;5110798;28;20043;-58
2023/08/09 09:05:47;;;;;;;5.20;1.00;;;;;;;;;;5106431;28;20044;-58
2023/08/09 09:08:14;;;;;;;4.50;1.00;;;;;;;;;;5098275;28;20051;-59
2023/08/09 09:10:44;;;;;;;4.68;0.90;;;;;;;;;;5105473;28;20135;-59
2023/08/09 09:13:22;;;;;;;12.93;1.30;;;;;;;;;;5103194;28;20048;-58
2023/08/09 09:15:49;;;;;;;3.28;0.85;;;;;;;;;;5102541;28;20127;-58
2023/08/09 09:18:15;;;;;;;8.70;1.17;;;;;;;;;;5099370;28;20456;-59
2023/08/09 09:20:42;;;;;;;4.97;0.98;;;;;;;;;;5110604;28;20097;-58
2023/08/09 09:23:08;;;;;;;4.30;1.10;;;;;;;;;;5105856;28;20113;-58
2023/08/09 09:25:34;;;;;;;3.55;1.02;;;;;;;;;;5100995;28;20055;-58
2023/08/09 09:28:01;;;;;;;4.80;1.00;;;;;;;;;;5094104;28;20075;-59
2023/08/09 09:30:31;;;;;;;3.22;1.00;;;;;;;;;;5109790;28;20122;-59
2023/08/09 09:32:58;;;;;;;4.03;1.00;;;;;;;;;;5110398;28;20044;-59
2023/08/09 09:35:31;;;;;;;4.00;0.93;;;;;;;;;;5100548;28;20087;-58
2023/08/09 09:38:01;;;;;;;4.18;0.80;;;;;;;;;;5085777;28;20090;-58
2023/08/09 09:40:31;;;;;;;4.75;1.00;;;;;;;;;;5094998;27;20044;-59
2023/08/09 09:42:58;;;;;;;4.10;1.00;;;;;;;;;;5099012;28;20064;-59
2023/08/09 09:45:25;;;;;;;3.72;0.90;;;;;;;;;;5113202;28;20450;-58
2023/08/09 09:47:53;;;;;;;2.28;0.88;;;;;;;;;;5108214;28;20516;-67
2023/08/09 09:50:22;;;;;;;5.90;1.20;;;;;;;;;;5094692;28;20484;-59
2023/08/09 09:52:49;;;;;;;7.70;1.00;;;;;;;;;;5102963;28;20078;-58
2023/08/09 09:55:25;;;;;;;4.35;0.85;;;;;;;;;;5112831;28;20135;-59
2023/08/09 09:57:52;;;;;;;3.40;1.17;;;;;;;;;;5106179;28;20445;-59
2023/08/09 10:00:27;;;;;;;2.83;0.85;;;;;;;;;;5101687;28;20429;-59
2023/08/09 10:02:54;;;;;;;2.15;0.85;;;;;;;;;;5090037;28;20391;-59
2023/08/09 10:05:25;;;;;;;2.90;1.20;;;;;;;;;;5091751;28;20380;-59
2023/08/09 10:07:51;;;;;;;7.05;0.90;;;;;;;;;;5097208;28;20043;-62
2023/08/09 10:10:18;;;;;;;2.92;1.00;;;;;;;;;;5106274;28;20054;-59
2023/08/09 10:12:47;;;;;;;5.85;1.20;;;;;;;;;;5098269;28;20043;-59
2023/08/09 10:15:15;;;;;;;4.05;0.93;;;;;;;;;;5113419;28;20118;-59
2023/08/09 10:17:42;;;;;;;4.50;0.77;;;;;;;;;;5092797;28;20056;-59
2023/08/09 10:20:10;;;;;;;4.25;1.00;;;;;;;;;;5100595;28;20094;-59
2023/08/09 10:22:37;;;;;;;3.90;1.05;;;;;;;;;;5113203;28;20051;-59
2023/08/09 10:25:04;;;;;;;5.63;1.15;;;;;;;;;;5105837;28;20523;-68
2023/08/09 10:27:49;;;;;;;2.65;0.90;;;;;;;;;;5092986;28;20097;-59
2023/08/09 10:30:16;;;;;;;3.10;1.00;;;;;;;;;;5108013;28;20040;-59
2023/08/09 10:32:52;;;;;;;6.47;1.40;;;;;;;;;;5084985;28;20195;-59
2023/08/09 10:35:19;;;;;;;5.85;1.00;;;;;;;;;;5091392;28;20468;-59
2023/08/09 10:37:45;;;;;;;3.95;1.10;;;;;;;;;;5103841;28;20051;-59
2023/08/09 10:40:15;;;;;;;4.60;0.90;;;;;;;;;;5105707;28;20092;-59
2023/08/09 10:42:42;;;;;;;3.30;1.00;;;;;;;;;;5101044;28;20149;-56
2023/08/09 10:45:08;;;;;;;2.92;1.00;;;;;;;;;;5112685;28;20044;-56
2023/08/09 10:47:34;;;;;;;2.97;0.82;;;;;;;;;;5110891;28;20096;-56
2023/08/09 10:50:03;;;;;;;3.75;0.85;;;;;;;;;;5096385;28;20101;-56
2023/08/09 10:52:31;;;;;;;8.48;1.23;;;;;;;;;;5099574;28;20044;-57
2023/08/09 10:55:16;;;;;;;5.05;1.27;;;;;;;;;;5101846;28;20032;-57
2023/08/09 10:57:43;;;;;;;4.80;1.00;;;;;;;;;;5083453;28;20088;-56
2023/08/09 11:00:12;;;;;;;3.70;0.90;;;;;;;;;;5106136;28;20040;-56
2023/08/09 11:02:55;;;;;;;3.70;1.15;;;;;;;;;;5103147;28;20123;-56
2023/08/09 11:05:22;;;;;;;5.60;1.10;;;;;;;;;;5109380;28;20103;-56
2023/08/09 11:07:49;;;;;;;4.57;1.15;;;;;;;;;;5099656;27;20048;-56
2023/08/09 11:10:16;;;;;;;3.58;1.13;;;;;;;;;;5098467;28;20078;-56
2023/08/09 11:12:45;;;;;;;3.45;0.80;;;;;;;;;;5096006;28;20123;-64
2023/08/09 11:15:12;;;;;;;6.47;1.00;;;;;;;;;;5090991;28;20465;-56
2023/08/09 11:17:47;;;;;;;5.13;1.30;;;;;;;;;;5109795;28;20109;-56
2023/08/09 11:20:14;;;;;;;2.00;0.90;;;;;;;;;;5112046;28;20495;-56
2023/08/09 11:22:54;;;;;;;4.10;1.10;;;;;;;;;;5108575;28;20479;-56
2023/08/09 11:25:21;;;;;;;5.60;1.00;;;;;;;;;;5102213;28;20079;-56
2023/08/09 11:27:47;;;;;;;2.05;0.70;;;;;;;;;;5111685;28;20142;-56
2023/08/09 11:30:14;;;;;;;6.95;1.20;;;;;;;;;;5101316;28;20376;-56
2023/08/09 11:32:40;;;;;;;5.50;1.30;;;;;;;;;;5093724;28;20483;-56
2023/08/09 11:35:07;;;;;;;5.30;0.95;;;;;;;;;;5100257;28;20096;-56
2023/08/09 11:37:33;;;;;;;4.20;0.80;;;;;;;;;;5101790;28;20055;-56
2023/08/09 11:39:59;;;;;;;4.03;1.10;;;;;;;;;;5110024;28;20036;-56
2023/08/09 11:42:25;;;;;;;3.38;0.88;;;;;;;;;;5111841;28;20402;-56
2023/08/09 11:44:51;;;;;;;5.30;1.15;;;;;;;;;;5099261;28;20039;-56
2023/08/09 11:47:18;;;;;;;4.93;0.90;;;;;;;;;;5100330;28;20055;-56
2023/08/09 11:49:44;;;;;;;5.45;1.00;;;;;;;;;;5109482;28;20071;-56
2023/08/09 11:52:18;;;;;;;3.65;1.10;;;;;;;;;;5111664;28;20047;-56
2023/08/09 11:54:44;;;;;;;4.35;1.00;;;;;;;;;;5098649;28;20530;-56
2023/08/09 11:57:10;;;;;;;7.18;1.20;;;;;;;;;;5097830;28;20110;-56
2023/08/09 11:59:39;;;;;;;4.43;1.40;;;;;;;;;;5100158;28;20475;-56
2023/08/09 12:02:06;;;;;;;7.97;1.60;;;;;;;;;;5088780;28;20518;-56
2023/08/09 12:04:33;;;;;;;7.15;1.50;;;;;;;;;;5088883;28;20054;-55
2023/08/09 12:07:02;;;;;;;8.52;1.23;;;;;;;;;;5105093;28;20431;-56
2023/08/09 12:09:34;;;;;;;6.40;1.52;;;;;;;;;;5100042;27;20546;-56
2023/08/09 12:12:05;;;;;;;6.50;1.40;;;;;;;;;;5110222;28;20048;-56
2023/08/09 12:14:32;;;;;;;10.20;2.80;;;;;;;;;;5105579;28;20035;-56
2023/08/09 12:16:59;;;;;;;6.78;1.55;;;;;;;;;;5103697;28;20044;-56
2023/08/09 12:19:25;;;;;;;5.72;1.40;;;;;;;;;;5108391;28;20370;-56
2023/08/09 12:21:51;;;;;;;4.57;1.35;;;;;;;;;;5111257;28;20044;-56
2023/08/09 12:24:17;;;;;;;6.55;1.15;;;;;;;;;;5101730;28;20050;-56
2023/08/09 12:26:43;;;;;;;4.90;1.20;;;;;;;;;;5088186;28;20040;-56
2023/08/09 12:29:09;;;;;;;18.05;2.15;;;;;;;;;;5105385;28;20495;-56
2023/08/09 12:31:36;;;;;;;4.00;1.45;;;;;;;;;;5103715;28;20070;-56
2023/08/09 12:34:03;;;;;;;4.50;1.30;;;;;;;;;;5100099;28;20075;-56
2023/08/09 12:36:29;;;;;;;4.70;1.30;;;;;;;;;;5095699;28;20039;-56
2023/08/09 12:38:56;;;;;;;3.17;0.98;;;;;;;;;;5108793;28;20522;-56
2023/08/09 12:41:22;;;;;;;5.95;1.65;;;;;;;;;;5097038;28;20100;-56
2023/08/09 12:43:48;;;;;;;6.38;1.23;;;;;;;;;;5098026;28;20062;-56
2023/08/09 12:46:15;;;;;;;4.78;1.15;;;;;;;;;;5103649;28;20061;-56
2023/08/09 12:48:41;;;;;;;8.98;1.75;;;;;;;;;;5097649;28;20055;-56
2023/08/09 12:51:07;;;;;;;6.65;1.27;;;;;;;;;;5110980;28;20070;-56
2023/08/09 12:53:33;;;;;;;5.30;1.30;;;;;;;;;;5107111;28;20058;-56
2023/08/09 12:56:00;;;;;;;5.03;1.17;;;;;;;;;;5102207;28;20440;-56
2023/08/09 12:58:26;;;;;;;6.75;1.33;;;;;;;;;;5094808;28;20039;-55
2023/08/09 13:00:52;;;;;;;8.25;1.77;;;;;;;;;;5086744;28;20139;-56
2023/08/09 13:03:18;;;;;;;11.45;1.55;;;;;;;;;;5089130;28;20047;-56
2023/08/09 13:05:44;;;;;;;9.85;2.20;;;;;;;;;;5102517;28;20931;-57
2023/08/09 13:08:11;;;;;;;6.65;1.67;;;;;;;;;;5099487;28;20043;-56
2023/08/09 13:10:38;;;;;;;7.22;1.45;;;;;;;;;;5109590;28;20048;-56
2023/08/09 13:13:04;;;;;;;6.55;1.30;;;;;;;;;;5114666;27;20064;-56
2023/08/09 13:15:30;;;;;;;10.05;2.10;;;;;;;;;;5109240;28;20043;-56
2023/08/09 13:17:57;;;;;;;9.38;1.80;;;;;;;;;;5086314;28;20054;-56
2023/08/09 13:20:24;;;;;;;6.70;1.58;;;;;;;;;;5114486;28;20107;-56
2023/08/09 13:22:51;;;;;;;10.30;1.73;;;;;;;;;;5105771;28;20051;-56
2023/08/09 13:25:17;;;;;;;8.95;1.60;;;;;;;;;;5093638;28;20040;-55
2023/08/09 13:27:45;;;;;;;8.20;1.80;;;;;;;;;;5092662;28;20490;-55
2023/08/09 13:30:12;;;;;;;8.40;1.75;;;;;;;;;;5092946;28;20129;-56
2023/08/09 13:32:38;;;;;;;9.43;1.90;;;;;;;;;;5093067;28;20114;-56
2023/08/09 13:35:09;;;;;;;7.10;1.58;;;;;;;;;;5094038;28;20036;-56
2023/08/09 13:37:39;;;;;;;9.45;1.38;;;;;;;;;;5089879;28;20058;-56
2023/08/09 13:40:09;;;;;;;6.75;1.67;;;;;;;;;;5093115;28;20059;-56
2023/08/09 13:42:35;;;;;;;5.13;1.42;;;;;;;;;;5092736;28;20051;-56
2023/08/09 13:45:02;;;;;;;8.88;1.77;;;;;;;;;;5093728;28;20467;-56
2023/08/09 13:47:28;;;;;;;10.25;1.67;;;;;;;;;;5092735;28;20052;-56
2023/08/09 13:49:54;;;;;;;9.50;1.30;;;;;;;;;;5091812;28;20048;-56
2023/08/09 13:52:20;;;;;;;6.43;1.42;;;;;;;;;;5093255;28;20391;-56
2023/08/09 13:54:47;;;;;;;6.88;2.03;;;;;;;;;;5093323;28;20094;-56
2023/08/09 13:57:13;;;;;;;8.90;1.80;;;;;;;;;;5092047;28;20166;-56
2023/08/09 13:59:39;;;;;;;6.43;1.75;;;;;;;;;;5093032;28;20036;-56
2023/08/09 14:02:05;;;;;;;7.97;2.03;;;;;;;;;;5092438;28;20071;-56
2023/08/09 14:04:31;;;;;;;7.97;1.75;;;;;;;;;;5092033;28;20081;-56
2023/08/09 14:06:59;;;;;;;4.68;1.27;;;;;;;;;;5101313;28;20149;-56
2023/08/09 14:09:26;;;;;;;6.50;1.35;;;;;;;;;;5082441;28;20036;-56
2023/08/09 14:11:52;;;;;;;7.55;1.60;;;;;;;;;;5104461;28;20091;-56
2023/08/09 14:14:18;;;;;;;7.38;1.65;;;;;;;;;;5113261;28;20039;-56
2023/08/09 14:16:45;;;;;;;6.40;1.52;;;;;;;;;;5104280;28;20043;-56
2023/08/09 14:19:12;;;;;;;6.05;1.35;;;;;;;;;;5109164;28;20035;-56
2023/08/09 14:21:39;;;;;;;5.18;1.45;;;;;;;;;;5113208;28;20189;-56
2023/08/09 14:24:05;;;;;;;5.25;1.70;;;;;;;;;;5097461;28;20089;-56
2023/08/09 14:26:32;;;;;;;7.15;1.73;;;;;;;;;;5101084;28;20110;-56
2023/08/09 14:28:58;;;;;;;8.23;1.40;;;;;;;;;;5106117;28;20051;-55
2023/08/09 14:31:24;;;;;;;5.45;1.52;;;;;;;;;;5103504;28;20040;-55
2023/08/09 14:33:50;;;;;;;7.45;1.77;;;;;;;;;;5111512;28;20050;-56
2023/08/09 14:36:17;;;;;;;6.82;1.58;;;;;;;;;;5112970;28;20035;-56
2023/08/09 14:38:43;;;;;;;8.52;1.83;;;;;;;;;;5097046;28;20077;-56
2023/08/09 14:41:09;;;;;;;8.55;1.38;;;;;;;;;;5101510;28;20115;-55